Pagrindinis puslapis
METAR-TAF:

METAR-TAF

Oro uostai :

Hōfu, Japonija

platuma: 34-02N, ilguma: 131-33E, Aukštis: 2 m

Dabartinis oras

Ataskaita buvo paskelbta 3 valandos ir 44 minutes, ne 00:34 UTC
Vėjas 3 kt iš Šiaurės
Temperatūra 7°C
Drėgmė 76%
Slėgis 1031 hPa
Matomumas 10 km arba daugiau
Mažai debesys ne aukštis 2500 ft
Su prošvaistėmis ne aukštis 21000 ft

METAR: RJOF 200034Z 36003KT 9999 FEW025 BKN210 07/03 Q1031 RMK 1CU025 A3046

Laikas: 13:18 (04:18 UTC)


TAF: trūkstamas

Orai ataskaitas ir orų prognozės (METAR, TAF).

turimą stotys yra geltonos ir raudonos taškus žemėlapyje.

Perkelti pele per norėdami pamatyti stoties vardą.

Tada spustelėkite, norėdami matyti oro stebėjimo ir prognozės.

Norėdami pakeisti žemėlapį: spustelėkite ant žalios mygtukų su juodo kryžiaus žemyn,; žalią mygtuką su brūkšneliu, jei norite nutolinti; arba žalių rodyklių gretimoms žemėlapius.


METAR-TAF: